Time;durP1;ratioP1;P1;durP2;ratioP2;P2;SDS_P1;SDS_P2;PMS_P1;PMS_P2;Temp;Humidity;BMP_temperature;BMP_pressure;BME280_temperature;BME280_humidity;BME280_pressure;Samples;Min_cycle;Max_cycle;Signal;HPM_P1;HPM_P2
2023/06/01 00:00:24;;;;;;;2.42;1.00;;;19.10;35.80;;;;;;2399261;56;20964;-69
2023/06/01 00:02:53;;;;;;;2.70;1.17;;;19.10;35.90;;;;;;2185551;57;20988;-70
2023/06/01 00:05:20;;;;;;;3.17;1.10;;;19.10;36.00;;;;;;2199400;57;21025;-67
2023/06/01 00:07:49;;;;;;;3.75;1.00;;;19.00;36.10;;;;;;2187088;57;21521;-70
2023/06/01 00:10:15;;;;;;;2.72;1.05;;;19.00;36.30;;;;;;2398090;57;20960;-68
2023/06/01 00:12:42;;;;;;;2.97;1.15;;;18.90;36.30;;;;;;2398207;57;20929;-70
2023/06/01 00:15:10;;;;;;;2.45;1.00;;;18.90;36.40;;;;;;2185208;57;20953;-67
2023/06/01 00:17:39;;;;;;;3.03;1.00;;;18.80;36.40;;;;;;2184976;57;21021;-71
2023/06/01 00:20:10;;;;;;;2.97;1.20;;;18.80;36.80;;;;;;2185519;57;21000;-68
2023/06/01 00:22:39;;;;;;;2.55;1.00;;;18.80;36.80;;;;;;2188328;57;21050;-71
2023/06/01 00:25:07;;;;;;;2.83;1.10;;;18.70;36.90;;;;;;2185586;57;20973;-70
2023/06/01 00:27:33;;;;;;;2.80;1.00;;;18.70;36.80;;;;;;2185618;57;21505;-67
2023/06/01 00:33:29;;;;;;;2.83;1.17;;;18.60;37.20;;;;;;2397807;57;21029;-67
2023/06/01 00:35:56;;;;;;;2.40;0.98;;;18.60;36.80;;;;;;2197517;57;21481;-67
2023/06/01 00:38:26;;;;;;;2.30;1.10;;;18.50;36.90;;;;;;2188821;57;21010;-66
2023/06/01 00:40:52;;;;;;;2.92;1.00;;;18.50;37.00;;;;;;2199464;57;20984;-67
2023/06/01 00:43:24;;;;;;;2.35;1.10;;;18.40;37.00;;;;;;2412389;56;21029;-67
2023/06/01 00:46:02;;;;;;;3.28;1.48;;;18.40;37.10;;;;;;2185870;57;21605;-69
2023/06/01 00:48:29;;;;;;;3.15;1.23;;;18.40;37.20;;;;;;2185258;57;21825;-70
2023/06/01 00:50:59;;;;;;;1.83;0.90;;;18.40;37.20;;;;;;2192561;57;20965;-67
2023/06/01 00:53:25;;;;;;;2.40;0.93;;;18.30;37.30;;;;;;2408439;56;21058;-69
2023/06/01 00:55:52;;;;;;;2.10;0.93;;;18.30;37.30;;;;;;2398116;57;21510;-66
2023/06/01 00:58:19;;;;;;;2.55;1.10;;;18.20;37.40;;;;;;2398287;57;21640;-67
2023/06/01 01:00:49;;;;;;;2.58;1.23;;;18.20;37.60;;;;;;2185466;57;21033;-67
2023/06/01 01:03:46;;;;;;;2.37;1.20;;;18.20;37.60;;;;;;2185135;57;21028;-67
2023/06/01 01:07:09;;;;;;;2.45;1.20;;;18.20;38.10;;;;;;2398358;57;20917;-69
2023/06/01 01:14:46;;;;;;;2.58;1.20;;;18.10;37.80;;;;;;2185701;57;21021;-67
2023/06/01 01:30:38;;;;;;;2.10;0.80;;;18.10;37.80;;;;;;2185902;57;21830;-67
2023/06/01 01:34:56;;;;;;;1.98;0.60;;;17.90;37.60;;;;;;2487269;53;26291;-68
2023/06/01 01:38:07;;;;;;;2.35;0.90;;;17.70;37.80;;;;;;2241914;56;21074;-67
2023/06/01 01:42:24;;;;;;;3.22;1.45;;;17.60;38.00;;;;;;2450967;55;21072;-69
2023/06/01 01:46:24;;;;;;;2.33;1.00;;;17.60;39.00;;;;;;2449625;55;21088;-67
2023/06/01 01:55:37;;;;;;;2.80;1.23;;;17.50;38.50;;;;;;2456541;55;21004;-67
2023/06/01 02:05:05;;;;;;;2.22;1.08;;;17.30;38.60;;;;;;2225469;56;21022;-67
2023/06/01 02:12:43;;;;;;;2.17;0.98;;;17.20;39.00;;;;;;2250654;60;21080;-67
2023/06/01 02:34:14;;;;;;;;;;;;;;;;;;;;;
2023/06/01 02:41:48;;;;;;;;;;;;;;;;;;;;;
2023/06/01 02:45:20;;;;;;;2.87;1.42;;;16.90;39.70;;;;;;2444746;56;21117;-69
2023/06/01 02:48:20;;;;;;;;;;;;;;;;;;;;;
2023/06/01 03:27:28;;;;;;;3.62;1.65;;;16.90;40.30;;;;;;2261383;56;21094;-67
2023/06/01 04:12:57;;;;;;;1.58;0.70;;;16.00;39.90;;;;;;2384905;58;21175;-67
2023/06/01 04:53:20;;;;;;;2.80;1.10;;;16.00;40.40;;;;;;2148345;58;21038;-67
2023/06/01 05:57:09;;;;;;;3.53;1.40;;;16.80;42.30;;;;;;2410357;56;28323;-68
2023/06/01 06:00:22;;;;;;;2.80;0.93;;;16.80;42.70;;;;;;2420783;56;21113;-69
2023/06/01 06:03:08;;;;;;;3.95;1.45;;;17.30;43.00;;;;;;2362161;57;21080;-67
2023/06/01 06:06:09;;;;;;;3.40;1.62;;;17.30;42.80;;;;;;2389595;56;21066;-67
2023/06/01 06:12:05;;;;;;;4.18;2.08;;;17.40;43.40;;;;;;2430107;56;21006;-67
2023/06/01 06:14:49;;;;;;;4.00;2.10;;;17.50;44.30;;;;;;2424767;56;21064;-67
2023/06/01 06:17:25;;;;;;;5.00;1.95;;;17.60;44.10;;;;;;2414914;56;21001;-69
2023/06/01 06:20:02;;;;;;;4.12;2.12;;;17.70;43.90;;;;;;2441321;56;21438;-68
2023/06/01 06:22:40;;;;;;;4.45;2.45;;;17.80;44.10;;;;;;2397355;57;20969;-70
2023/06/01 06:25:20;;;;;;;7.20;2.30;;;17.90;44.30;;;;;;2419402;56;20983;-67
2023/06/01 06:27:50;;;;;;;4.87;2.25;;;17.90;44.50;;;;;;2197694;57;21018;-67
2023/06/01 06:30:24;;;;;;;3.37;1.80;;;18.00;44.20;;;;;;2216138;57;20978;-67
2023/06/01 06:32:51;;;;;;;4.20;2.10;;;18.10;44.20;;;;;;2454971;55;21074;-68
2023/06/01 06:35:20;;;;;;;3.72;1.80;;;18.20;44.30;;;;;;2463640;55;21006;-69
2023/06/01 06:37:49;;;;;;;6.12;1.83;;;18.20;44.40;;;;;;2463021;55;20969;-68
2023/06/01 06:40:20;;;;;;;3.10;1.80;;;18.30;44.50;;;;;;2454247;56;21477;-68
2023/06/01 06:42:46;;;;;;;4.75;2.08;;;18.40;44.60;;;;;;2436874;56;21799;-67
2023/06/01 06:45:17;;;;;;;5.35;1.75;;;18.50;44.50;;;;;;2216378;56;20940;-69
2023/06/01 06:47:45;;;;;;;3.65;1.58;;;18.50;44.60;;;;;;2446934;56;21096;-69
2023/06/01 06:50:12;;;;;;;3.62;1.65;;;18.60;44.60;;;;;;2447067;56;21584;-68
2023/06/01 06:52:38;;;;;;;4.78;2.28;;;18.70;44.70;;;;;;2447406;56;21099;-72
2023/06/01 06:55:06;;;;;;;3.53;1.80;;;18.80;45.00;;;;;;2449975;56;20966;-69
2023/06/01 06:57:34;;;;;;;4.10;2.22;;;18.80;45.00;;;;;;2210284;57;20952;-71
2023/06/01 07:00:03;;;;;;;3.42;1.67;;;18.90;45.00;;;;;;2436811;56;20978;-67
2023/06/01 07:02:31;;;;;;;3.55;1.87;;;19.00;45.00;;;;;;2424889;56;21053;-68
2023/06/01 07:04:58;;;;;;;4.37;1.90;;;19.10;45.00;;;;;;2421373;56;21734;-67
2023/06/01 07:07:25;;;;;;;3.90;1.75;;;19.20;45.10;;;;;;2208420;56;21469;-67
2023/06/01 07:09:53;;;;;;;4.53;2.08;;;19.20;44.90;;;;;;2422947;56;21017;-67
2023/06/01 07:12:19;;;;;;;3.60;1.80;;;19.30;45.00;;;;;;2215367;56;21932;-67
2023/06/01 07:14:46;;;;;;;4.20;2.20;;;19.40;45.00;;;;;;2415237;56;21415;-68
2023/06/01 07:17:12;;;;;;;3.53;1.70;;;19.50;45.10;;;;;;2452117;55;21064;-67
2023/06/01 07:19:39;;;;;;;4.32;1.80;;;19.60;45.10;;;;;;2442999;55;20988;-67
2023/06/01 07:22:08;;;;;;;4.18;1.87;;;19.70;45.20;;;;;;2426370;56;21019;-67
2023/06/01 07:24:35;;;;;;;6.28;2.60;;;19.70;45.20;;;;;;2442424;56;20933;-67
2023/06/01 07:27:01;;;;;;;3.67;1.98;;;19.80;45.40;;;;;;2232433;56;21078;-68
2023/06/01 07:29:27;;;;;;;4.55;2.08;;;19.90;45.30;;;;;;2233449;56;20968;-69
2023/06/01 07:31:54;;;;;;;4.97;2.47;;;20.00;45.30;;;;;;2231957;56;20960;-69
2023/06/01 07:34:21;;;;;;;4.87;1.83;;;20.10;45.50;;;;;;2233197;56;21011;-67
2023/06/01 07:36:49;;;;;;;4.40;2.00;;;20.20;45.60;;;;;;2455844;55;21011;-69
2023/06/01 07:39:16;;;;;;;4.45;1.70;;;20.30;45.50;;;;;;2437062;55;20999;-69
2023/06/01 07:42:20;;;;;;;3.25;1.60;;;20.40;45.30;;;;;;2209534;57;21015;-71
2023/06/01 07:44:51;;;;;;;3.92;1.65;;;20.50;45.60;;;;;;2222531;57;21494;-67
2023/06/01 07:47:25;;;;;;;3.83;1.75;;;20.60;45.20;;;;;;2436909;56;21088;-67
2023/06/01 07:49:51;;;;;;;3.60;1.40;;;20.70;45.20;;;;;;2209264;56;21087;-71
2023/06/01 07:52:18;;;;;;;7.45;1.40;;;20.80;45.20;;;;;;2434153;56;21049;-68
2023/06/01 07:54:45;;;;;;;5.47;1.70;;;20.90;45.40;;;;;;2212100;56;20953;-68
2023/06/01 07:57:11;;;;;;;4.03;1.95;;;21.00;45.40;;;;;;2432173;56;21038;-68
2023/06/01 07:59:37;;;;;;;2.90;1.50;;;21.10;45.50;;;;;;2420268;56;21011;-70
2023/06/01 08:02:05;;;;;;;4.10;1.98;;;21.20;45.40;;;;;;2222682;56;20956;-68
2023/06/01 08:04:33;;;;;;;4.37;1.70;;;21.30;45.40;;;;;;2449122;55;21000;-68
2023/06/01 08:06:59;;;;;;;4.70;1.75;;;21.40;45.30;;;;;;2231087;56;20980;-68
2023/06/01 08:09:25;;;;;;;4.22;1.58;;;21.50;45.30;;;;;;2232891;56;21063;-71
2023/06/01 08:11:54;;;;;;;5.68;1.58;;;21.60;45.10;;;;;;2464226;55;21907;-69
2023/06/01 08:14:20;;;;;;;4.15;1.80;;;21.70;45.00;;;;;;2439890;55;21048;-68
2023/06/01 08:16:47;;;;;;;4.40;1.75;;;21.80;44.90;;;;;;2218704;56;20986;-68
2023/06/01 08:19:28;;;;;;;4.60;1.70;;;21.90;44.80;;;;;;2434550;56;20991;-71
2023/06/01 08:22:08;;;;;;;4.35;2.15;;;22.00;45.10;;;;;;2442031;55;21026;-68
2023/06/01 08:24:47;;;;;;;4.37;1.62;;;22.10;44.80;;;;;;2438643;55;21058;-69
2023/06/01 09:09:32;;;;;;;2.95;1.42;;;22.30;45.00;;;;;;2232020;56;20997;-72
2023/06/01 10:40:10;;;;;;;;;;;;;;;;;;;;;
2023/06/01 11:45:27;;;;;;;3.67;1.37;;;28.70;39.20;;;;;;2404763;56;22061;-74
2023/06/01 11:49:19;;;;;;;;;;;;;;;;;;;;;
2023/06/01 12:18:00;;;;;;;3.17;1.40;;;28.90;38.60;;;;;;2299956;59;21213;-71
2023/06/01 12:22:27;;;;;;;3.28;1.27;;;29.60;38.40;;;;;;2453814;55;21000;-70
2023/06/01 12:31:46;;;;;;;2.75;1.25;;;29.60;38.00;;;;;;2460423;55;20984;-73
2023/06/01 12:35:06;;;;;;;2.53;1.45;;;29.90;38.20;;;;;;2411370;57;21863;-72
2023/06/01 12:38:54;;;;;;;3.75;1.75;;;29.90;37.40;;;;;;2355828;57;21037;-73
2023/06/01 13:03:55;;;;;;;3.70;2.00;;;30.00;36.60;;;;;;2231505;56;28527;-71
2023/06/01 13:36:18;;;;;;;;;;;;;;;;;;;;;
2023/06/01 13:50:18;;;;;;;;;;;;;;;;;;;;;
2023/06/01 14:01:30;;;;;;;7.00;1.63;;;30.80;34.30;;;;;;2260824;56;21048;-71
2023/06/01 14:04:33;;;;;;;4.95;2.40;;;30.80;33.90;;;;;;2281735;56;21005;-70
2023/06/01 14:07:40;;;;;;;;;;;;;;;;;;;;;
2023/06/01 14:11:32;;;;;;;5.32;1.67;;;30.80;33.90;;;;;;2469681;55;21070;-70
2023/06/01 14:14:58;;;;;;;3.90;2.08;;;30.80;34.00;;;;;;2494636;55;21224;-73
2023/06/01 14:18:39;;;;;;;4.43;1.95;;;30.80;33.60;;;;;;2281584;57;20982;-69
2023/06/01 14:21:52;;;;;;;4.70;2.42;;;30.90;33.80;;;;;;2263965;56;21587;-71
2023/06/01 14:25:13;;;;;;;4.00;2.10;;;30.80;33.90;;;;;;2480154;55;22032;-71
2023/06/01 14:29:39;;;;;;;4.27;1.90;;;30.80;33.20;;;;;;2497963;55;21145;-69
2023/06/01 14:32:41;;;;;;;3.37;1.80;;;30.90;33.40;;;;;;2497056;55;21130;-72
2023/06/01 14:36:43;;;;;;;3.30;1.58;;;30.90;32.90;;;;;;2484431;54;21012;-70
2023/06/01 15:13:03;;;;;;;3.87;1.98;;;31.10;33.20;;;;;;2446879;55;20976;-69
2023/06/01 15:16:12;;;;;;;;;;;;;;;;;;;;;
2023/06/01 15:19:44;;;;;;;;;;;;;;;;;;;;;
2023/06/01 15:24:13;;;;;;;;;;;;;;;;;;;;;
2023/06/01 15:32:18;;;;;;;3.40;1.50;;;31.10;32.70;;;;;;2447636;54;20971;-71
2023/06/01 15:35:50;;;;;;;2.75;1.40;;;31.00;32.20;;;;;;2276113;56;20962;-70
2023/06/01 15:38:43;;;;;;;2.85;1.45;;;31.00;31.70;;;;;;2487839;55;21050;-70
2023/06/01 15:49:42;;;;;;;;;;;;;;;;;;;;;
2023/06/01 15:52:21;;;;;;;3.75;1.40;;;31.10;32.30;;;;;;2476197;55;21002;-68
2023/06/01 15:55:22;;;;;;;;;;;;;;;;;;;;;
2023/06/01 16:06:23;;;;;;;4.80;2.10;;;31.00;31.40;;;;;;2516747;55;20974;-71
2023/06/01 16:09:23;;;;;;;;;;;;;;;;;;;;;
2023/06/01 16:12:45;;;;;;;3.78;1.27;;;30.90;30.80;;;;;;2448385;55;21036;-70
2023/06/01 16:16:10;;;;;;;;;;;;;;;;;;;;;
2023/06/01 16:19:51;;;;;;;2.20;1.08;;;30.90;30.60;;;;;;2276391;56;21084;-71
2023/06/01 16:22:36;;;;;;;3.10;1.52;;;30.90;31.20;;;;;;2511559;54;21003;-72
2023/06/01 16:28:59;;;;;;;3.35;1.55;;;30.80;30.70;;;;;;2533415;54;21055;-69
2023/06/01 16:31:42;;;;;;;;;;;;;;;;;;;;;
2023/06/01 16:34:19;;;;;;;;;;;30.80;30.80;;;;;;2471173;55;21158;-73
2023/06/01 16:36:57;;;;;;;3.33;1.20;;;30.80;30.90;;;;;;2485387;55;20629;-69
2023/06/01 16:40:10;;;;;;;3.70;1.33;;;30.80;30.70;;;;;;2461511;55;21439;-70
2023/06/01 16:53:50;;;;;;;;;;;;;;;;;;;;;
2023/06/01 16:56:42;;;;;;;2.87;1.50;;;30.70;31.10;;;;;;2285667;56;21897;-72
2023/06/01 16:59:39;;;;;;;3.67;1.30;;;30.60;30.00;;;;;;2277659;56;21010;-69
2023/06/01 17:02:37;;;;;;;6.15;1.80;;;30.60;30.00;;;;;;2487791;55;21062;-69
2023/06/01 17:05:44;;;;;;;3.28;1.50;;;30.50;30.10;;;;;;2253068;57;20998;-71
2023/06/01 17:08:38;;;;;;;4.05;1.50;;;30.50;30.00;;;;;;2475154;55;21457;-70
2023/06/01 17:11:49;;;;;;;2.80;1.52;;;30.40;30.10;;;;;;2253637;56;21096;-70
2023/06/01 17:14:30;;;;;;;6.30;1.80;;;30.40;30.00;;;;;;2252011;56;21060;-71
2023/06/01 17:17:37;;;;;;;;;;;;;;;;;;;;;
2023/06/01 17:20:40;;;;;;;2.53;1.23;;;30.40;29.80;;;;;;2245802;56;20993;-73
2023/06/01 17:29:16;;;;;;;3.08;1.50;;;30.40;29.80;;;;;;2481240;55;21044;-69
2023/06/01 17:32:25;;;;;;;4.12;1.20;;;30.30;29.80;;;;;;2472460;55;21033;-69
2023/06/01 17:35:22;;;;;;;2.80;1.40;;;30.30;29.80;;;;;;2243452;56;20997;-74
2023/06/01 17:42:24;;;;;;;3.10;1.02;;;30.20;30.00;;;;;;2248140;56;21558;-72
2023/06/01 17:49:31;;;;;;;2.50;1.05;;;30.30;30.00;;;;;;2263316;56;21124;-69
2023/06/01 17:53:04;;;;;;;2.90;1.27;;;30.50;30.10;;;;;;2233485;56;21950;-69
2023/06/01 18:16:05;;;;;;;2.25;1.20;;;30.50;29.70;;;;;;2232904;58;21026;-72
2023/06/01 18:22:01;;;;;;;;;;;;;;;;;;;;;
2023/06/01 18:28:22;;;;;;;3.42;1.10;;;32.60;29.40;;;;;;2448860;55;21099;-71
2023/06/01 18:32:18;;;;;;;2.08;0.90;;;32.50;29.10;;;;;;2348584;56;21043;-72
2023/06/01 18:51:56;;;;;;;;;;;;;;;;;;;;;
2023/06/01 19:37:50;;;;;;;;;;;;;;;;;;;;;
2023/06/01 19:41:06;;;;;;;2.22;0.80;;;29.40;29.70;;;;;;2397690;57;20968;-69
2023/06/01 21:06:45;;;;;;;;;;;;;;;;;;;;;
2023/06/01 21:09:37;;;;;;;1.48;0.60;;;24.40;33.00;;;;;;2322715;57;21902;-70
2023/06/01 22:16:09;;;;;;;1.45;0.75;;;24.10;33.40;;;;;;2148364;58;21043;-68
2023/06/01 22:18:48;;;;;;;3.25;1.17;;;24.00;33.90;;;;;;2561599;53;22807;-70
2023/06/01 22:21:16;;;;;;;4.72;1.85;;;22.60;35.20;;;;;;2345932;53;21042;-72
2023/06/01 22:23:43;;;;;;;3.85;1.95;;;22.30;35.70;;;;;;2354477;53;21019;-70
2023/06/01 22:26:09;;;;;;;3.37;1.70;;;22.50;35.90;;;;;;2587181;53;20907;-69
2023/06/01 22:28:39;;;;;;;3.65;1.70;;;22.50;36.10;;;;;;2356065;54;20997;-71
2023/06/01 22:31:05;;;;;;;3.58;2.15;;;22.40;36.30;;;;;;2347106;53;21009;-69
2023/06/01 22:33:32;;;;;;;6.53;2.45;;;22.40;36.60;;;;;;2357544;54;20926;-69
2023/06/01 22:36:02;;;;;;;4.50;2.22;;;22.50;36.80;;;;;;2355009;54;21019;-71
2023/06/01 22:38:30;;;;;;;4.07;2.30;;;22.50;36.80;;;;;;2355902;54;21002;-69
2023/06/01 22:40:57;;;;;;;5.57;2.28;;;22.50;36.80;;;;;;2355896;54;20938;-70
2023/06/01 22:43:24;;;;;;;4.20;2.22;;;22.50;36.90;;;;;;2605560;53;20907;-73
2023/06/01 22:45:51;;;;;;;6.72;2.87;;;22.50;37.00;;;;;;2605130;53;20994;-69
2023/06/01 22:48:37;;;;;;;4.20;2.40;;;22.50;37.10;;;;;;2604695;53;22115;-70
2023/06/01 22:51:09;;;;;;;3.95;1.98;;;22.60;37.60;;;;;;2355914;54;20926;-69
2023/06/01 22:53:36;;;;;;;4.78;2.40;;;22.60;37.30;;;;;;2596651;53;20958;-71
2023/06/01 22:56:16;;;;;;;5.10;2.53;;;22.60;37.20;;;;;;2596591;53;20954;-70
2023/06/01 22:58:52;;;;;;;4.70;2.30;;;22.60;37.40;;;;;;2358152;54;21109;-72
2023/06/01 23:01:26;;;;;;;5.47;3.03;;;22.60;37.30;;;;;;2337277;53;20969;-69
2023/06/01 23:04:28;;;;;;;4.40;2.57;;;22.70;37.50;;;;;;2593824;53;20946;-68
2023/06/01 23:07:14;;;;;;;5.30;2.58;;;22.70;37.70;;;;;;2599728;53;21130;-69
2023/06/01 23:09:44;;;;;;;4.85;2.90;;;22.70;37.30;;;;;;2601149;53;20918;-69
2023/06/01 23:12:14;;;;;;;4.15;2.30;;;22.70;37.40;;;;;;2357237;54;20990;-68
2023/06/01 23:14:42;;;;;;;3.92;2.00;;;22.70;37.40;;;;;;2603097;53;20942;-69
2023/06/01 23:17:28;;;;;;;5.15;2.90;;;22.70;37.40;;;;;;2356664;54;20927;-73
2023/06/01 23:19:55;;;;;;;4.85;2.40;;;22.70;37.40;;;;;;2358214;54;20950;-69
2023/06/01 23:22:27;;;;;;;4.75;2.78;;;22.70;37.40;;;;;;2357392;54;20918;-70
2023/06/01 23:24:57;;;;;;;5.10;2.92;;;22.70;37.40;;;;;;2605084;53;20907;-70
2023/06/01 23:27:36;;;;;;;7.25;2.97;;;22.70;37.40;;;;;;2602955;53;21005;-69
2023/06/01 23:30:23;;;;;;;5.40;3.00;;;22.70;37.40;;;;;;2344532;53;20954;-70
2023/06/01 23:32:56;;;;;;;4.37;2.30;;;22.60;37.30;;;;;;2602490;53;21022;-69
2023/06/01 23:35:23;;;;;;;4.40;2.55;;;22.60;37.50;;;;;;2354942;54;20937;-70
2023/06/01 23:37:59;;;;;;;4.43;2.62;;;22.60;37.40;;;;;;2603384;53;20938;-70
2023/06/01 23:40:26;;;;;;;4.80;2.67;;;22.60;37.50;;;;;;2354342;54;20887;-70
2023/06/01 23:42:56;;;;;;;6.22;2.58;;;22.60;37.60;;;;;;2354685;54;20958;-68
2023/06/01 23:45:25;;;;;;;4.53;2.45;;;22.50;37.60;;;;;;2346381;53;20923;-69
2023/06/01 23:47:52;;;;;;;5.50;3.17;;;22.50;37.70;;;;;;2593616;53;21558;-70
2023/06/01 23:50:19;;;;;;;4.47;2.75;;;22.50;37.70;;;;;;2599980;53;21009;-69
2023/06/01 23:52:47;;;;;;;4.80;2.75;;;22.50;37.80;;;;;;2323917;54;20950;-71
2023/06/01 23:55:13;;;;;;;4.53;2.50;;;22.40;37.80;;;;;;2603634;53;20950;-73
2023/06/01 23:57:45;;;;;;;5.53;2.80;;;22.40;37.80;;;;;;2594944;53;21507;-69
